»·PEaware :: DCM180 KEGE-KSLC

DCM180 :: KEGE-KSLC

FLIGHT INFORMATION

Flight Status: Arrived
Operator:
DotCom
More flights by this operator :: More flights under this callsign
Pilot: Etienne B. (28927)
Aircraft: AIRBUS A320
(A320)
More flights by this aircraft type
Origin: KEGE Eagle Co Regl
United States
Destination: KSLC Salt Lake City Intl
United States
More flights between these airports :: More routes between these airports
Route: +BEVVR1 SPRKT EKR LEEHY5
File this flight plan on PilotEdge
Remarks: RMK / SIMBRIEF
Altitude:
(Current/Filed)
36,000ft
Speed:
(Current/Filed)
443kts
Departed: 14-May-20 03:47 PM
Arrived: 14-May-20 04:38 PM
Distance/Time
Traveled:
242nm/0:50
Distance/Time
To Go:
Arrived

Flight Plot

Page will automatically refresh every two minutes.

Flight plan parsing failed; only flown route is shown


Map Options




Map Legend


Flown Route
Filed Route
Departure Airport
Arrival Airport
Navaid (VOR, NDB)
Fix

Horizontal Profiles

Position Reports

Time Latitude Longitude Heading Altitude Ground
Speed
14-May-20 15:25 39.640501 -106.914017 171 6554ft 0kts
14-May-20 15:26 39.640501 -106.914017 171 6554ft 0kts
14-May-20 15:27 39.640501 -106.914017 171 6554ft 0kts
14-May-20 15:28 39.640501 -106.914017 171 6554ft 0kts
14-May-20 15:29 39.640501 -106.914017 171 6554ft 0kts
14-May-20 15:30 39.640501 -106.914017 171 6554ft 0kts
14-May-20 15:31 39.640501 -106.914017 171 6554ft 0kts
14-May-20 15:32 39.640501 -106.914017 171 6554ft 0kts
14-May-20 15:33 39.640501 -106.914017 171 6554ft 0kts
14-May-20 15:34 39.640501 -106.914017 171 6554ft 0kts
14-May-20 15:35 39.640501 -106.914017 171 6554ft 0kts
14-May-20 15:36 39.640501 -106.914017 171 6554ft 0kts
14-May-20 15:37 39.640501 -106.914017 171 6554ft 0kts
14-May-20 15:38 39.640850 -106.914141 145 6554ft 2kts
14-May-20 15:39 39.641087 -106.914750 85 6554ft 1kts
14-May-20 15:40 39.641073 -106.914865 80 6554ft 0kts
14-May-20 15:41 39.641073 -106.914865 80 6554ft 0kts
14-May-20 15:42 39.641285 -106.913209 80 6554ft 3kts
14-May-20 15:43 39.642211 -106.910717 81 6554ft 24kts
14-May-20 15:44 39.643217 -106.901167 81 6554ft 24kts
14-May-20 15:45 39.644012 -106.900195 350 6554ft 10kts
14-May-20 15:46 39.642330 -106.919954 264 6556ft 152kts
14-May-20 15:47 39.608428 -106.957947 213 8461ft 183kts
14-May-20 15:48 39.577131 -107.014937 266 10186ft 233kts
14-May-20 15:49 39.601735 -107.096275 325 12572ft 276kts
14-May-20 15:50 39.676062 -107.106805 12 15350ft 296kts
14-May-20 15:51 39.750637 -107.123945 302 17319ft 301kts
14-May-20 15:52 39.802078 -107.222043 301 18349ft 355kts
14-May-20 15:53 39.860126 -107.333656 301 19827ft 380kts
14-May-20 15:54 39.919590 -107.448471 300 21692ft 386kts
14-May-20 15:55 39.972924 -107.569348 286 23358ft 387kts
14-May-20 15:56 40.008106 -107.701305 286 24896ft 392kts
14-May-20 15:57 40.043916 -107.836013 286 26302ft 398kts
14-May-20 15:58 40.069925 -107.976005 271 27555ft 400kts
14-May-20 15:59 40.076433 -108.120989 271 28735ft 404kts
14-May-20 16:00 40.082935 -108.268051 271 29783ft 409kts
14-May-20 16:01 40.089343 -108.417139 271 30715ft 413kts
14-May-20 16:02 40.095571 -108.566626 271 31895ft 409kts
14-May-20 16:03 40.101487 -108.713181 271 33015ft 404kts
14-May-20 16:04 40.107171 -108.858377 271 34057ft 399kts
14-May-20 16:05 40.112637 -109.002524 271 34932ft 397kts
14-May-20 16:06 40.117859 -109.145033 272 35894ft 390kts
14-May-20 16:07 40.122848 -109.285789 272 35997ft 387kts
14-May-20 16:08 40.127675 -109.426555 271 35976ft 386kts
14-May-20 16:09 40.132235 -109.564835 272 35953ft 379kts
14-May-20 16:10 40.136607 -109.702058 271 35933ft 379kts
14-May-20 16:11 40.140831 -109.839698 271 35957ft 380kts
14-May-20 16:13 40.144905 -109.977867 271 35990ft 382kts
14-May-20 16:14 40.148814 -110.116591 271 36007ft 383kts
14-May-20 16:15 40.148145 -110.255300 269 35012ft 380kts
14-May-20 16:16 40.146957 -110.391183 269 33107ft 369kts
14-May-20 16:17 40.145664 -110.521758 268 31516ft 351kts
14-May-20 16:18 40.144294 -110.647264 268 29960ft 344kts
14-May-20 16:19 40.142825 -110.770162 268 28399ft 338kts
14-May-20 16:20 40.141253 -110.890806 268 26732ft 336kts
14-May-20 16:21 40.139484 -111.019194 268 23218ft 370kts
14-May-20 16:22 40.137455 -111.150457 268 21393ft 354kts
14-May-20 16:23 40.135386 -111.275551 268 19710ft 338kts
14-May-20 16:24 40.133304 -111.394752 268 18101ft 323kts
14-May-20 16:25 40.131181 -111.509804 268 16533ft 311kts
14-May-20 16:25 40.149210 -111.599145 294 15461ft 315kts
14-May-20 16:27 40.201085 -111.712189 312 14164ft 316kts
14-May-20 16:28 40.262067 -111.793914 312 13058ft 314kts
14-May-20 16:28 40.316117 -111.857131 320 12132ft 314kts
14-May-20 16:29 40.385779 -111.924636 336 11061ft 311kts
14-May-20 16:31 40.477307 -111.938671 352 11033ft 258kts
14-May-20 16:32 40.544918 -111.946497 352 9911ft 255kts
14-May-20 16:32 40.602278 -111.954199 353 7600ft 262kts
14-May-20 16:33 40.660441 -111.959538 351 6381ft 184kts
14-May-20 16:34 40.702800 -111.964629 353 5712ft 153kts
14-May-20 16:35 40.739804 -111.969114 354 4936ft 143kts
14-May-20 16:36 40.774709 -111.973102 353 4293ft 135kts
14-May-20 16:37 40.786210 -111.974631 342 4236ft 10kts
14-May-20 16:38 40.788176 -111.977094 234 4236ft 2kts
14-May-20 16:39 40.787792 -111.977879 270 4236ft 0kts

Navigation Log

Ident Type
Flight plan parsing failed, navigation log unavailable